Pagrindinis puslapis
METAR-TAF:

METAR-TAF

Oro uostai :

Berlevåg, Norvegija

platuma: 70-52N, ilguma: 029-02E, Aukštis: 1 m

Dabartinis oras

Ataskaita buvo paskelbta 39 minutes, ne 11:50 UTC
Vėjas 6 kt iš Rytų/Pietryčių
Temperatūra 1°C
Drėgmė 86%
Slėgis 999 hPa
Matomumas 10 km arba daugiau
Su prošvaistėmis ne aukštis 1500 ft

METAR: ENBV 161150Z 12006KT 9999 BKN015 01/M01 Q0999

Laikas: 13:29 (12:29 UTC)

Prognozė

Ataskaita buvo paskelbta 1 valandą ir 29 minutes, ne 11:00 UTC
Prognozė galioja nuo 16 metu 12 UTC su 16 metu 21 UTC
Vėjas 8 kt iš Rytų/Pietryčių
Matomumas 10 km arba daugiau
Su prošvaistėmis ne aukštis 2000 ft
Laikinai
nuo 16 metu 15 UTC su 16 metu 21 UTC
Su prošvaistėmis ne aukštis 1200 ft

TAF: ENBV 161100Z 1612/1621 12008KT 9999 BKN020 TEMPO 1615/1621 BKN012

Orai ataskaitas ir orų prognozės (METAR, TAF).

turimą stotys yra geltonos ir raudonos taškus žemėlapyje.

Perkelti pele per norėdami pamatyti stoties vardą.

Tada spustelėkite, norėdami matyti oro stebėjimo ir prognozės.

Norėdami pakeisti žemėlapį: spustelėkite ant žalios mygtukų su juodo kryžiaus žemyn,; žalią mygtuką su brūkšneliu, jei norite nutolinti; arba žalių rodyklių gretimoms žemėlapius.


METAR-TAF: